createdAt,value
2023-01-01T00:00:13.303Z,47.28
2023-01-01T00:01:13.241Z,47.41
2023-01-01T00:02:13.355Z,47.49
2023-01-01T00:03:13.225Z,47.39
2023-01-01T00:04:13.274Z,47.49
2023-01-01T00:05:13.195Z,47.31
2023-01-01T00:06:13.173Z,47.19
2023-01-01T00:07:13.179Z,47.31
2023-01-01T00:08:13.181Z,47.41
2023-01-01T00:09:13.156Z,47.51
2023-01-01T00:10:13.140Z,47.08
2023-01-01T00:11:13.145Z,47.39
2023-01-01T00:12:13.110Z,47.11
2023-01-01T00:13:13.116Z,47.28
2023-01-01T00:14:13.088Z,47.49
2023-01-01T00:15:13.076Z,47.39
2023-01-01T00:16:13.149Z,47.39
2023-01-01T00:17:13.064Z,47.19
2023-01-01T00:18:13.062Z,47.49
2023-01-01T00:19:13.047Z,47.91
2023-01-01T00:20:13.020Z,47.39
2023-01-01T00:21:13.011Z,47.28
2023-01-01T00:22:44.101Z,47.11
2023-01-01T00:23:13.985Z,47.28
2023-01-01T00:24:12.995Z,47.11
2023-01-01T00:25:12.994Z,47.19
2023-01-01T00:26:12.957Z,47.51
2023-01-01T00:27:12.943Z,47.41
2023-01-01T00:28:12.932Z,47.49
2023-01-01T00:29:12.927Z,47.28
2023-01-01T00:30:12.907Z,47.59
2023-01-01T00:31:12.967Z,47.31
2023-01-01T00:32:15.422Z,47.99
2023-01-01T00:33:13.872Z,47.11
2023-01-01T00:34:12.864Z,47.20
2023-01-01T00:35:12.856Z,47.20
2023-01-01T00:36:12.840Z,47.08
2023-01-01T00:37:12.839Z,47.08
2023-01-01T00:38:12.814Z,47.20
2023-01-01T00:39:12.811Z,47.20
2023-01-01T00:40:12.905Z,47.41
2023-01-01T00:41:12.790Z,47.31
2023-01-01T00:42:12.771Z,47.41
2023-01-01T00:43:12.779Z,46.98
2023-01-01T00:44:12.751Z,47.41
2023-01-01T00:45:18.734Z,47.41
2023-01-01T00:46:13.799Z,47.19
2023-01-01T00:47:12.716Z,47.71
2023-01-01T00:48:12.706Z,47.41
2023-01-01T00:49:12.706Z,47.20
2023-01-01T00:50:12.693Z,47.49
2023-01-01T00:51:12.681Z,47.41
2023-01-01T00:52:12.663Z,47.11
2023-01-01T00:53:12.656Z,47.49
2023-01-01T00:54:12.654Z,47.49
2023-01-01T00:55:12.641Z,47.28
2023-01-01T00:56:12.633Z,47.49
2023-01-01T00:57:12.605Z,47.49
2023-01-01T00:58:12.605Z,47.31
2023-01-01T00:59:12.584Z,47.41
2023-01-01T01:00:12.587Z,47.39
2023-01-01T01:01:12.683Z,47.41
2023-01-01T01:02:12.765Z,47.39
2023-01-01T01:03:12.684Z,47.61
2023-01-01T01:04:12.526Z,47.39
2023-01-01T01:05:12.521Z,47.69
2023-01-01T01:06:12.510Z,47.61
2023-01-01T01:07:12.497Z,47.59
2023-01-01T01:08:12.495Z,47.81
2023-01-01T01:09:12.471Z,47.81
2023-01-01T01:10:12.458Z,47.81
2023-01-01T01:11:12.462Z,47.89
2023-01-01T01:12:18.729Z,47.81
2023-01-01T01:13:13.438Z,47.20
2023-01-01T01:14:12.412Z,47.49
2023-01-01T01:15:12.424Z,46.70
2023-01-01T01:16:12.545Z,47.71
2023-01-01T01:17:12.436Z,48.09
2023-01-01T01:18:12.368Z,47.69
2023-01-01T01:19:12.383Z,47.61
2023-01-01T01:20:12.346Z,47.81
2023-01-01T01:21:12.337Z,47.61
2023-01-01T01:22:12.338Z,47.71
2023-01-01T01:23:12.311Z,47.51
2023-01-01T01:24:12.302Z,47.61
2023-01-01T01:25:12.297Z,47.71
2023-01-01T01:26:12.277Z,47.69
2023-01-01T01:27:12.267Z,47.71
2023-01-01T01:28:12.279Z,47.71
2023-01-01T01:29:12.249Z,47.61
2023-01-01T01:30:12.240Z,47.59
2023-01-01T01:31:12.320Z,47.61
2023-01-01T01:32:12.212Z,47.61
2023-01-01T01:33:12.202Z,47.61
2023-01-01T01:34:16.069Z,47.41
2023-01-01T01:35:12.177Z,47.31
2023-01-01T01:36:12.172Z,47.20
2023-01-01T01:37:12.185Z,47.41
2023-01-01T01:38:12.148Z,46.91
2023-01-01T01:39:12.141Z,47.11
2023-01-01T01:40:12.123Z,47.20
2023-01-01T01:41:26.037Z,47.20
2023-01-01T01:42:13.102Z,47.28
2023-01-01T01:43:12.086Z,47.59
2023-01-01T01:44:12.097Z,47.08
2023-01-01T01:45:12.065Z,47.41
2023-01-01T01:46:12.111Z,47.31
2023-01-01T01:47:12.040Z,47.20
2023-01-01T01:48:12.053Z,47.08
2023-01-01T01:49:12.020Z,47.20
2023-01-01T01:50:12.009Z,47.20
2023-01-01T01:51:11.998Z,47.20
2023-01-01T01:52:11.988Z,47.11
2023-01-01T01:53:11.979Z,47.20
2023-01-01T01:54:11.988Z,47.20
2023-01-01T01:55:11.956Z,47.20
2023-01-01T01:56:11.951Z,47.41
2023-01-01T01:57:11.933Z,46.80
2023-01-01T01:58:11.920Z,46.80
2023-01-01T01:59:11.917Z,46.70
2023-01-01T02:00:12.162Z,46.80
2023-01-01T02:01:12.013Z,46.98
2023-01-01T02:02:12.084Z,47.11
2023-01-01T02:03:11.917Z,47.00
2023-01-01T02:04:11.852Z,46.30
2023-01-01T02:05:11.840Z,46.91
2023-01-01T02:06:11.841Z,46.98
2023-01-01T02:07:11.817Z,46.48
2023-01-01T02:08:11.807Z,47.51
2023-01-01T02:09:11.795Z,47.20
2023-01-01T02:10:11.784Z,46.70
2023-01-01T02:11:11.776Z,46.10
2023-01-01T02:12:11.797Z,46.68
2023-01-01T02:13:11.758Z,46.70
2023-01-01T02:14:11.738Z,46.50
2023-01-01T02:15:11.727Z,46.80
2023-01-01T02:16:11.870Z,47.19
2023-01-01T02:17:11.714Z,47.00
2023-01-01T02:18:11.704Z,47.31
2023-01-01T02:19:11.682Z,46.38
2023-01-01T02:20:11.673Z,46.88
2023-01-01T02:21:11.672Z,47.00
2023-01-01T02:22:11.665Z,47.28
2023-01-01T02:23:11.648Z,47.31
2023-01-01T02:24:11.654Z,46.60
2023-01-01T02:25:11.619Z,46.70
2023-01-01T02:26:11.603Z,46.70
2023-01-01T02:27:11.607Z,46.70
2023-01-01T02:28:11.583Z,47.08
2023-01-01T02:29:11.571Z,46.88
2023-01-01T02:30:11.584Z,46.91
2023-01-01T02:31:11.572Z,46.70
2023-01-01T02:32:11.566Z,46.70
2023-01-01T02:33:11.529Z,46.88
2023-01-01T02:34:11.524Z,46.70
2023-01-01T02:35:11.503Z,46.68
2023-01-01T02:36:11.519Z,46.58
2023-01-01T02:37:11.481Z,46.91
2023-01-01T02:38:11.487Z,46.40
2023-01-01T02:39:11.460Z,46.91
2023-01-01T02:40:11.467Z,46.78
2023-01-01T02:41:11.462Z,46.80
2023-01-01T02:42:11.433Z,46.70
2023-01-01T02:43:11.436Z,46.88
2023-01-01T02:44:11.405Z,46.80
2023-01-01T02:45:11.400Z,46.50
2023-01-01T02:46:11.466Z,46.91
2023-01-01T02:47:11.369Z,46.70
2023-01-01T02:48:11.407Z,46.60
2023-01-01T02:49:11.348Z,46.80
2023-01-01T02:50:11.338Z,46.80
2023-01-01T02:51:11.327Z,47.19
2023-01-01T02:52:11.316Z,46.60
2023-01-01T02:53:11.311Z,46.70
2023-01-01T02:54:11.300Z,47.20
2023-01-01T02:55:11.279Z,47.31
2023-01-01T02:56:11.268Z,47.20
2023-01-01T02:57:11.270Z,47.11
2023-01-01T02:58:11.245Z,47.11
2023-01-01T02:59:11.236Z,47.20
2023-01-01T03:00:11.249Z,46.60
2023-01-01T03:01:11.320Z,47.11
2023-01-01T03:02:11.330Z,46.91
2023-01-01T03:03:11.337Z,46.40
2023-01-01T03:04:11.211Z,46.18
2023-01-01T03:05:11.172Z,46.91
2023-01-01T03:06:11.163Z,46.68
2023-01-01T03:07:11.148Z,46.38
2023-01-01T03:08:11.136Z,46.88
2023-01-01T03:09:11.126Z,46.91
2023-01-01T03:10:11.121Z,47.00
2023-01-01T03:11:11.135Z,47.28
2023-01-01T03:12:11.091Z,46.68
2023-01-01T03:13:11.084Z,46.58
2023-01-01T03:14:11.067Z,46.58
2023-01-01T03:15:11.057Z,47.00
2023-01-01T03:16:11.079Z,46.40
2023-01-01T03:17:11.036Z,45.98
2023-01-01T03:18:11.041Z,46.60
2023-01-01T03:19:11.364Z,46.68
2023-01-01T03:20:11.115Z,46.60
2023-01-01T03:21:40.737Z,46.60
2023-01-01T03:23:10.475Z,46.60
2023-01-01T03:24:10.467Z,46.60
2023-01-01T03:25:10.450Z,46.40
2023-01-01T03:26:10.447Z,46.60
2023-01-01T03:27:10.433Z,46.60
2023-01-01T03:28:10.423Z,46.40
2023-01-01T03:29:10.428Z,46.38
2023-01-01T03:30:10.398Z,46.40
2023-01-01T03:31:10.425Z,46.40
2023-01-01T03:32:10.367Z,46.60
2023-01-01T03:33:10.360Z,46.50
2023-01-01T03:34:10.364Z,46.50
2023-01-01T03:35:10.349Z,46.60
2023-01-01T03:36:10.339Z,46.60
2023-01-01T03:37:10.322Z,46.60
2023-01-01T03:38:10.305Z,46.50
2023-01-01T03:39:10.286Z,46.58
2023-01-01T03:40:10.283Z,46.30
2023-01-01T03:41:10.293Z,46.40
2023-01-01T03:42:10.263Z,46.50
2023-01-01T03:43:10.272Z,46.80
2023-01-01T03:44:10.239Z,46.60
2023-01-01T03:45:10.222Z,46.30
2023-01-01T03:46:10.301Z,46.78
2023-01-01T03:47:10.206Z,46.30
2023-01-01T03:48:10.194Z,46.80
2023-01-01T03:49:10.184Z,46.60
2023-01-01T03:50:10.192Z,46.60
2023-01-01T03:51:10.153Z,47.00
2023-01-01T03:52:10.167Z,47.00
2023-01-01T03:53:10.161Z,46.60
2023-01-01T03:54:10.128Z,46.60
2023-01-01T03:55:10.112Z,46.60
2023-01-01T03:56:10.106Z,46.60
2023-01-01T03:57:10.088Z,46.40
2023-01-01T03:58:10.081Z,46.40
2023-01-01T03:59:10.086Z,46.60
2023-01-01T04:00:10.058Z,46.50
2023-01-01T04:01:10.065Z,46.91
2023-01-01T04:02:10.115Z,46.60
2023-01-01T04:03:10.045Z,46.60
2023-01-01T04:04:10.009Z,46.40
2023-01-01T04:05:10.013Z,46.60
2023-01-01T04:06:09.987Z,47.11
2023-01-01T04:07:15.258Z,46.70
2023-01-01T04:08:10.987Z,46.50
2023-01-01T04:09:09.952Z,46.40
2023-01-01T04:10:09.945Z,46.60
2023-01-01T04:11:09.936Z,46.60
2023-01-01T04:12:09.919Z,46.80
2023-01-01T04:13:09.908Z,46.60
2023-01-01T04:14:09.908Z,46.60
2023-01-01T04:15:09.886Z,46.60
2023-01-01T04:16:09.881Z,46.60
2023-01-01T04:17:09.880Z,46.60
2023-01-01T04:18:09.856Z,46.40
2023-01-01T04:19:09.843Z,46.60
2023-01-01T04:20:09.831Z,46.60
2023-01-01T04:21:09.822Z,46.80
2023-01-01T04:22:09.807Z,46.60
2023-01-01T04:23:09.809Z,46.60
2023-01-01T04:24:09.814Z,47.00
2023-01-01T04:25:09.773Z,46.58
2023-01-01T04:26:09.761Z,46.30
2023-01-01T04:27:09.752Z,46.60
2023-01-01T04:28:09.740Z,46.60
2023-01-01T04:29:09.760Z,46.60
2023-01-01T04:30:09.731Z,46.20
2023-01-01T04:31:09.708Z,46.91
2023-01-01T04:32:09.699Z,46.91
2023-01-01T04:33:09.684Z,46.40
2023-01-01T04:34:09.672Z,46.91
2023-01-01T04:35:09.674Z,46.20
2023-01-01T04:36:09.656Z,46.40
2023-01-01T04:37:13.120Z,46.40
2023-01-01T04:38:09.628Z,46.40
2023-01-01T04:39:09.621Z,46.40
2023-01-01T04:40:09.739Z,46.40
2023-01-01T04:41:09.611Z,47.20
2023-01-01T04:42:09.581Z,46.30
2023-01-01T04:43:09.574Z,46.30
2023-01-01T04:44:09.562Z,46.30
2023-01-01T04:45:09.551Z,46.91
2023-01-01T04:46:09.610Z,46.70
2023-01-01T04:47:09.557Z,46.80
2023-01-01T04:48:09.522Z,46.80
2023-01-01T04:49:09.522Z,46.80
2023-01-01T04:50:09.535Z,46.80
2023-01-01T04:51:09.485Z,46.80
2023-01-01T04:52:09.470Z,46.30
2023-01-01T04:53:09.465Z,46.70
2023-01-01T04:54:09.449Z,46.70
2023-01-01T04:55:09.453Z,46.50
2023-01-01T04:56:09.471Z,46.70
2023-01-01T04:57:09.424Z,46.50
2023-01-01T04:58:09.401Z,46.50
2023-01-01T04:59:09.399Z,46.70
2023-01-01T05:00:09.392Z,46.70
2023-01-01T05:01:09.457Z,46.40
2023-01-01T05:02:09.505Z,46.50
2023-01-01T05:03:09.392Z,46.40
2023-01-01T05:04:09.346Z,46.50
2023-01-01T05:05:09.362Z,46.50
2023-01-01T05:06:09.321Z,46.40
2023-01-01T05:07:09.305Z,46.40
2023-01-01T05:08:09.294Z,46.30
2023-01-01T05:09:09.282Z,46.40
2023-01-01T05:10:09.270Z,46.91
2023-01-01T05:11:09.282Z,46.50
2023-01-01T05:12:09.273Z,46.91
2023-01-01T05:13:09.234Z,46.50
2023-01-01T05:14:09.222Z,46.91
2023-01-01T05:15:09.223Z,46.40
2023-01-01T05:16:09.218Z,46.91
2023-01-01T05:17:09.206Z,46.60
2023-01-01T05:18:09.180Z,46.91
2023-01-01T05:19:09.194Z,47.00
2023-01-01T05:20:09.165Z,46.60
2023-01-01T05:21:09.162Z,46.91
2023-01-01T05:22:11.207Z,46.80
2023-01-01T05:23:09.130Z,46.30
2023-01-01T05:24:09.115Z,46.80
2023-01-01T05:25:09.101Z,46.60
2023-01-01T05:26:09.092Z,46.60
2023-01-01T05:27:09.076Z,46.30
2023-01-01T05:28:09.085Z,46.50
2023-01-01T05:29:16.109Z,46.30
2023-01-01T05:30:10.044Z,46.60
2023-01-01T05:31:09.039Z,46.40
2023-01-01T05:32:38.769Z,46.50
2023-01-01T05:33:38.759Z,46.70
2023-01-01T05:34:38.765Z,46.50
2023-01-01T05:35:38.749Z,46.80
2023-01-01T05:36:39.172Z,46.60
2023-01-01T05:37:38.714Z,46.80
2023-01-01T05:38:38.714Z,46.50
2023-01-01T05:39:38.689Z,46.60
2023-01-01T05:40:38.713Z,46.60
2023-01-01T05:41:38.668Z,46.20
2023-01-01T05:42:38.667Z,46.50
2023-01-01T05:43:38.672Z,46.50
2023-01-01T05:44:38.634Z,46.20
2023-01-01T05:45:38.687Z,46.40
2023-01-01T05:46:38.627Z,46.50
2023-01-01T05:47:38.602Z,46.80
2023-01-01T05:48:38.597Z,46.60
2023-01-01T05:49:38.579Z,46.20
2023-01-01T05:50:38.577Z,46.50
2023-01-01T05:52:08.311Z,46.50
2023-01-01T05:53:08.297Z,46.20
2023-01-01T05:54:38.036Z,46.40
2023-01-01T05:55:38.027Z,46.50
2023-01-01T05:56:38.013Z,46.20
2023-01-01T05:57:38.009Z,46.20
2023-01-01T05:58:37.988Z,46.20
2023-01-01T05:59:37.994Z,46.20
2023-01-01T06:00:37.968Z,46.40
2023-01-01T06:01:45.147Z,46.40
2023-01-01T06:02:39.065Z,46.40
2023-01-01T06:03:37.936Z,46.40
2023-01-01T06:04:37.944Z,46.20
2023-01-01T06:05:37.912Z,46.20
2023-01-01T06:06:37.898Z,46.20
2023-01-01T06:07:39.333Z,46.30
2023-01-01T06:08:37.899Z,46.60
2023-01-01T06:09:37.869Z,46.20
2023-01-01T06:10:37.856Z,46.50
2023-01-01T06:11:37.843Z,46.50
2023-01-01T06:12:37.834Z,46.20
2023-01-01T06:13:37.819Z,46.40
2023-01-01T06:14:37.840Z,46.40
2023-01-01T06:15:37.819Z,46.20
2023-01-01T06:16:37.837Z,46.20
2023-01-01T06:17:37.774Z,46.50
2023-01-01T06:18:37.769Z,46.50
2023-01-01T06:19:37.754Z,46.30
2023-01-01T06:20:37.749Z,46.20
2023-01-01T06:21:37.735Z,46.20
2023-01-01T06:22:37.719Z,46.40
2023-01-01T06:23:37.707Z,45.79
2023-01-01T06:24:39.325Z,46.50
2023-01-01T06:25:37.685Z,46.40
2023-01-01T06:26:37.690Z,46.40
2023-01-01T06:27:37.663Z,46.50
2023-01-01T06:28:37.654Z,46.30
2023-01-01T06:29:37.641Z,45.79
2023-01-01T06:30:37.665Z,46.50
2023-01-01T06:31:40.831Z,46.20
2023-01-01T06:32:37.614Z,46.50
2023-01-01T06:33:37.597Z,46.40
2023-01-01T06:34:37.583Z,46.20
2023-01-01T06:35:37.576Z,46.20
2023-01-01T06:36:37.581Z,46.40
2023-01-01T06:37:37.575Z,46.10
2023-01-01T06:38:37.543Z,46.30
2023-01-01T06:39:37.528Z,46.50
2023-01-01T06:40:37.521Z,46.20
2023-01-01T06:41:37.513Z,46.20
2023-01-01T06:42:37.495Z,46.20
2023-01-01T06:43:37.485Z,46.50
2023-01-01T06:44:37.494Z,46.50
2023-01-01T06:45:37.463Z,46.40
2023-01-01T06:46:37.505Z,45.79
2023-01-01T06:47:37.455Z,46.40
2023-01-01T06:48:37.427Z,46.40
2023-01-01T06:49:37.417Z,46.40
2023-01-01T06:50:37.435Z,46.50
2023-01-01T06:51:37.394Z,46.20
2023-01-01T06:52:37.386Z,46.20
2023-01-01T06:53:37.374Z,46.20
2023-01-01T06:54:37.360Z,46.40
2023-01-01T06:55:37.353Z,46.50
2023-01-01T06:56:37.362Z,46.40
2023-01-01T06:57:37.327Z,46.20
2023-01-01T06:58:37.318Z,46.20
2023-01-01T06:59:37.306Z,46.50
2023-01-01T07:00:37.293Z,46.40
2023-01-01T07:01:37.357Z,46.30
2023-01-01T07:02:37.450Z,46.50
2023-01-01T07:03:37.404Z,46.30
2023-01-01T07:04:37.250Z,46.20
2023-01-01T07:05:37.238Z,46.50
2023-01-01T07:06:37.235Z,46.30
2023-01-01T07:07:37.244Z,46.20
2023-01-01T07:08:37.228Z,46.40
2023-01-01T07:09:37.192Z,46.50
2023-01-01T07:10:37.181Z,46.20
2023-01-01T07:11:37.171Z,46.50
2023-01-01T07:12:37.163Z,46.20
2023-01-01T07:13:37.152Z,46.20
2023-01-01T07:14:37.142Z,46.40
2023-01-01T07:15:37.155Z,46.50
2023-01-01T07:16:37.190Z,46.30
2023-01-01T07:17:37.101Z,46.20
2023-01-01T07:18:37.090Z,46.50
2023-01-01T07:19:37.132Z,46.20
2023-01-01T07:20:37.094Z,46.30
2023-01-01T07:21:37.065Z,46.50
2023-01-01T07:22:37.051Z,46.40
2023-01-01T07:23:37.037Z,46.20
2023-01-01T07:24:37.025Z,46.50
2023-01-01T07:25:37.017Z,46.40
2023-01-01T07:26:37.035Z,46.50
2023-01-01T07:27:36.997Z,46.50
2023-01-01T07:28:36.978Z,46.42
2023-01-01T07:29:36.966Z,46.50
2023-01-01T07:30:36.957Z,46.50
2023-01-01T07:31:37.011Z,46.30
2023-01-01T07:32:36.942Z,46.20
2023-01-01T07:33:36.929Z,46.30
2023-01-01T07:34:36.910Z,46.50
2023-01-01T07:35:36.922Z,46.40
2023-01-01T07:36:36.894Z,46.50
2023-01-01T07:37:36.876Z,46.40
2023-01-01T07:38:36.882Z,46.50
2023-01-01T07:39:36.854Z,46.50
2023-01-01T07:40:36.846Z,46.30
2023-01-01T07:41:36.844Z,46.50
2023-01-01T07:42:36.821Z,46.30
2023-01-01T07:43:36.811Z,46.30
2023-01-01T07:44:36.814Z,46.30
2023-01-01T07:45:36.791Z,46.30
2023-01-01T07:46:36.892Z,46.30
2023-01-01T07:47:36.765Z,46.30
2023-01-01T07:48:40.059Z,46.30
2023-01-01T07:49:36.743Z,46.40
2023-01-01T07:50:36.740Z,46.20
2023-01-01T07:51:36.743Z,46.20
2023-01-01T07:52:36.708Z,46.30
2023-01-01T07:53:36.699Z,46.20
2023-01-01T07:54:36.687Z,46.40
2023-01-01T07:55:36.682Z,46.20
2023-01-01T07:56:36.838Z,46.30
2023-01-01T07:57:36.653Z,46.30
2023-01-01T07:58:36.643Z,46.40
2023-01-01T07:59:36.636Z,46.30
2023-01-01T08:00:36.620Z,46.30
2023-01-01T08:01:36.781Z,46.30
2023-01-01T08:02:36.756Z,46.50
2023-01-01T08:03:36.610Z,46.40
2023-01-01T08:04:36.579Z,46.20
2023-01-01T08:05:36.563Z,46.30
2023-01-01T08:06:36.559Z,46.20
2023-01-01T08:07:36.559Z,46.30
2023-01-01T08:08:36.544Z,46.10
2023-01-01T08:09:36.519Z,46.10
2023-01-01T08:10:36.510Z,46.10
2023-01-01T08:11:36.496Z,46.10
2023-01-01T08:12:36.487Z,46.10
2023-01-01T08:13:36.488Z,46.00
2023-01-01T08:14:36.469Z,46.20
2023-01-01T08:15:36.453Z,46.10
2023-01-01T08:16:36.514Z,46.10
2023-01-01T08:17:39.713Z,46.10
2023-01-01T08:18:37.432Z,46.20
2023-01-01T08:19:36.407Z,46.00
2023-01-01T08:20:36.410Z,46.30
2023-01-01T08:21:36.383Z,46.00
2023-01-01T08:22:36.373Z,46.00
2023-01-01T08:23:36.382Z,46.10
2023-01-01T08:24:36.356Z,45.90
2023-01-01T08:25:36.343Z,45.90
2023-01-01T08:26:36.334Z,45.79
2023-01-01T08:27:36.353Z,45.79
2023-01-01T08:28:36.313Z,46.20
2023-01-01T08:29:36.299Z,45.90
2023-01-01T08:30:36.287Z,45.79
2023-01-01T08:31:36.387Z,46.10
2023-01-01T08:32:36.290Z,45.90
2023-01-01T08:33:36.250Z,46.10
2023-01-01T08:34:36.241Z,45.79
2023-01-01T08:35:36.231Z,45.70
2023-01-01T08:36:36.218Z,46.50
2023-01-01T08:37:36.210Z,46.60
2023-01-01T08:38:36.224Z,46.50
2023-01-01T08:39:36.202Z,46.20
2023-01-01T08:40:36.171Z,46.40
2023-01-01T08:41:36.159Z,46.10
2023-01-01T08:42:36.146Z,46.20
2023-01-01T08:43:36.138Z,46.40
2023-01-01T08:44:36.141Z,46.60
2023-01-01T08:45:36.126Z,46.40
2023-01-01T08:46:36.222Z,45.79
2023-01-01T08:47:36.096Z,46.60
2023-01-01T08:48:36.080Z,45.90
2023-01-01T08:49:36.069Z,46.60
2023-01-01T08:50:36.086Z,46.10
2023-01-01T08:51:36.049Z,46.60
2023-01-01T08:52:36.035Z,46.40
2023-01-01T08:53:36.041Z,46.10
2023-01-01T08:54:36.027Z,45.79
2023-01-01T08:55:36.024Z,45.90
2023-01-01T08:56:36.004Z,45.90
2023-01-01T08:57:35.981Z,46.10
2023-01-01T08:58:35.969Z,45.90
2023-01-01T08:59:35.962Z,46.40
2023-01-01T09:00:35.945Z,45.70
2023-01-01T09:01:36.085Z,46.60
2023-01-01T09:02:36.201Z,46.60
2023-01-01T09:03:35.979Z,45.90
2023-01-01T09:04:35.921Z,46.60
2023-01-01T09:05:35.889Z,45.79
2023-01-01T09:06:35.880Z,45.90
2023-01-01T09:07:35.868Z,45.70
2023-01-01T09:08:35.893Z,45.50
2023-01-01T09:09:35.846Z,46.50
2023-01-01T09:10:35.835Z,45.59
2023-01-01T09:11:35.851Z,45.79
2023-01-01T09:12:35.833Z,45.39
2023-01-01T09:13:35.806Z,45.70
2023-01-01T09:14:35.824Z,45.59
2023-01-01T09:15:35.800Z,45.70
2023-01-01T09:16:41.936Z,45.59
2023-01-01T09:17:36.756Z,45.59
2023-01-01T09:18:35.744Z,45.70
2023-01-01T09:19:35.739Z,45.59
2023-01-01T09:20:35.728Z,45.70
2023-01-01T09:21:35.710Z,45.50
2023-01-01T09:22:35.699Z,45.59
2023-01-01T09:23:35.696Z,45.50
2023-01-01T09:24:35.678Z,45.79
2023-01-01T09:25:35.678Z,45.70
2023-01-01T09:26:35.670Z,45.59
2023-01-01T09:27:35.660Z,45.59
2023-01-01T09:28:35.629Z,45.70
2023-01-01T09:29:35.620Z,45.70
2023-01-01T09:30:35.641Z,45.70
2023-01-01T09:31:35.636Z,45.59
2023-01-01T09:32:35.594Z,45.59
2023-01-01T09:33:35.589Z,45.59
2023-01-01T09:34:35.567Z,45.50
2023-01-01T09:35:35.570Z,45.39
2023-01-01T09:36:35.585Z,45.39
2023-01-01T09:37:35.587Z,45.70
2023-01-01T09:38:35.558Z,45.50
2023-01-01T09:39:35.515Z,45.39
2023-01-01T09:40:35.498Z,45.39
2023-01-01T09:41:35.489Z,45.39
2023-01-01T09:42:35.484Z,45.59
2023-01-01T09:43:35.538Z,45.59
2023-01-01T09:44:35.472Z,45.59
2023-01-01T09:45:35.532Z,45.50
2023-01-01T09:46:35.454Z,45.50
2023-01-01T09:47:35.420Z,45.70
2023-01-01T09:48:35.408Z,45.70
2023-01-01T09:49:35.397Z,45.70
2023-01-01T09:50:35.414Z,45.50
2023-01-01T09:51:36.379Z,45.79
2023-01-01T09:52:35.365Z,45.50
2023-01-01T09:53:35.360Z,45.79
2023-01-01T09:54:35.342Z,45.79
2023-01-01T09:55:35.330Z,45.59
2023-01-01T09:56:35.333Z,45.19
2023-01-01T09:57:35.310Z,45.17
2023-01-01T09:58:35.298Z,45.50
2023-01-01T09:59:35.308Z,45.59
2023-01-01T10:00:35.273Z,45.59
2023-01-01T10:01:35.347Z,45.39
2023-01-01T10:02:35.259Z,45.39
2023-01-01T10:03:35.254Z,45.39
2023-01-01T10:04:35.229Z,45.50
2023-01-01T10:05:35.216Z,45.50
2023-01-01T10:06:35.208Z,45.37
2023-01-01T10:07:35.195Z,45.67
2023-01-01T10:08:35.222Z,45.98
2023-01-01T10:09:35.179Z,45.19
2023-01-01T10:10:35.172Z,45.78
2023-01-01T10:11:35.151Z,45.67
2023-01-01T10:12:35.145Z,45.78
2023-01-01T10:13:35.127Z,45.57
2023-01-01T10:14:35.126Z,46.00
2023-01-01T10:15:35.126Z,45.57
2023-01-01T10:16:35.170Z,45.57
2023-01-01T10:17:35.082Z,45.47
2023-01-01T10:18:35.071Z,45.78
2023-01-01T10:19:35.070Z,45.47
2023-01-01T10:20:35.073Z,45.47
2023-01-01T10:21:35.038Z,44.77
2023-01-01T10:22:35.031Z,44.77
2023-01-01T10:23:35.015Z,44.87
2023-01-01T10:24:35.016Z,45.07
2023-01-01T10:25:35.002Z,44.87
2023-01-01T10:26:35.013Z,44.77
2023-01-01T10:27:34.978Z,44.97
2023-01-01T10:28:34.961Z,45.07
2023-01-01T10:29:34.952Z,45.07
2023-01-01T10:30:34.938Z,44.97
2023-01-01T10:31:35.056Z,45.07
2023-01-01T10:32:34.953Z,45.07
2023-01-01T10:33:34.903Z,45.07
2023-01-01T10:34:34.892Z,45.27
2023-01-01T10:35:34.905Z,45.27
2023-01-01T10:36:34.872Z,45.17
2023-01-01T10:37:34.862Z,45.17
2023-01-01T10:38:34.859Z,45.17
2023-01-01T10:39:34.840Z,45.27
2023-01-01T10:40:34.839Z,45.57
2023-01-01T10:41:34.814Z,45.57
2023-01-01T10:42:34.804Z,45.07
2023-01-01T10:43:34.800Z,45.07
2023-01-01T10:44:34.801Z,45.07
2023-01-01T10:45:34.816Z,45.07
2023-01-01T10:46:34.793Z,45.07
2023-01-01T10:47:34.767Z,45.78
2023-01-01T10:48:34.736Z,45.47
2023-01-01T10:49:34.724Z,45.67
2023-01-01T10:50:34.724Z,45.47
2023-01-01T10:51:34.701Z,45.47
2023-01-01T10:52:34.706Z,45.07
2023-01-01T10:53:34.684Z,45.37
2023-01-01T10:54:34.665Z,45.07
2023-01-01T10:55:34.661Z,45.37
2023-01-01T10:56:34.669Z,45.37
2023-01-01T10:57:34.634Z,45.47
2023-01-01T10:58:34.625Z,45.47
2023-01-01T10:59:34.650Z,45.47
2023-01-01T11:00:34.605Z,45.47
2023-01-01T11:01:34.751Z,45.57
2023-01-01T11:02:34.785Z,45.37
2023-01-01T11:03:34.589Z,45.37
2023-01-01T11:04:34.557Z,45.37
2023-01-01T11:05:34.549Z,45.27
2023-01-01T11:06:34.535Z,45.27
2023-01-01T11:07:34.523Z,45.37
2023-01-01T11:08:34.533Z,45.17
2023-01-01T11:09:34.501Z,45.17
2023-01-01T11:10:34.489Z,45.35
2023-01-01T11:11:34.478Z,45.37
2023-01-01T11:13:03.524Z,45.27
2023-01-01T11:13:35.477Z,45.37
2023-01-01T11:14:34.445Z,45.27
2023-01-01T11:15:34.432Z,45.37
2023-01-01T11:16:34.485Z,45.37
2023-01-01T11:17:34.420Z,45.25
2023-01-01T11:18:34.415Z,45.27
2023-01-01T11:19:34.433Z,45.25
2023-01-01T11:20:34.378Z,45.27
2023-01-01T11:21:34.379Z,45.47
2023-01-01T11:22:34.354Z,45.27
2023-01-01T11:23:34.348Z,45.37
2023-01-01T11:24:34.358Z,45.17
2023-01-01T11:25:34.327Z,45.37
2023-01-01T11:26:34.311Z,45.37
2023-01-01T11:27:34.299Z,45.27
2023-01-01T11:28:34.337Z,45.37
2023-01-01T11:29:34.275Z,45.37
2023-01-01T11:30:34.298Z,45.47
2023-01-01T11:31:34.284Z,45.47
2023-01-01T11:32:34.241Z,45.47
2023-01-01T11:33:34.232Z,45.47
2023-01-01T11:34:34.220Z,45.57
2023-01-01T11:35:34.238Z,45.57
2023-01-01T11:36:34.199Z,45.17
2023-01-01T11:37:34.275Z,45.07
2023-01-01T11:38:34.177Z,45.67
2023-01-01T11:39:34.165Z,45.17
2023-01-01T11:40:34.161Z,45.07
2023-01-01T11:41:34.143Z,45.17
2023-01-01T11:42:34.132Z,45.17
2023-01-01T11:43:34.124Z,45.07
2023-01-01T11:44:34.106Z,45.67
2023-01-01T11:45:37.594Z,45.07
2023-01-01T11:46:34.087Z,45.17
2023-01-01T11:47:34.072Z,45.17
2023-01-01T11:48:34.067Z,45.17
2023-01-01T11:49:34.064Z,45.17
2023-01-01T11:50:34.055Z,45.47
2023-01-01T11:51:34.060Z,45.47
2023-01-01T11:52:34.024Z,45.47
2023-01-01T11:53:34.008Z,45.45
2023-01-01T11:54:34.001Z,45.37
2023-01-01T11:55:34.006Z,45.27
2023-01-01T11:56:33.980Z,45.17
2023-01-01T11:57:33.967Z,45.65
2023-01-01T11:58:33.951Z,45.25
2023-01-01T11:59:33.942Z,45.27
2023-01-01T12:00:33.929Z,45.65
2023-01-01T12:01:34.023Z,45.35
2023-01-01T12:02:33.977Z,45.37
2023-01-01T12:03:34.284Z,45.25
2023-01-01T12:04:33.890Z,45.25
2023-01-01T12:05:33.878Z,45.35
2023-01-01T12:06:33.873Z,45.57
2023-01-01T12:07:33.876Z,45.55
2023-01-01T12:08:33.838Z,45.65
2023-01-01T12:09:33.827Z,45.27
2023-01-01T12:10:33.816Z,45.75
2023-01-01T12:11:33.804Z,45.47
2023-01-01T12:12:33.804Z,45.05
2023-01-01T12:13:33.815Z,45.07
2023-01-01T12:14:33.767Z,44.95
2023-01-01T12:15:33.814Z,45.15
2023-01-01T12:16:33.749Z,45.15
2023-01-01T12:17:33.761Z,45.25
2023-01-01T12:18:33.727Z,44.85
2023-01-01T12:19:34.227Z,45.15
2023-01-01T12:20:33.712Z,44.85
2023-01-01T12:21:33.691Z,45.25
2023-01-01T12:22:33.679Z,45.25
2023-01-01T12:23:33.783Z,45.27
2023-01-01T12:24:33.662Z,45.05
2023-01-01T12:25:33.666Z,45.35
2023-01-01T12:26:33.678Z,45.05
2023-01-01T12:27:33.629Z,45.05
2023-01-01T12:28:33.618Z,45.25
2023-01-01T12:29:33.601Z,45.15
2023-01-01T12:30:33.592Z,45.05
2023-01-01T12:31:33.613Z,45.05
2023-01-01T12:32:33.575Z,45.05
2023-01-01T12:33:33.556Z,45.05
2023-01-01T12:34:33.551Z,45.35
2023-01-01T12:35:33.534Z,45.05
2023-01-01T12:36:33.531Z,45.15
2023-01-01T12:37:33.520Z,44.95
2023-01-01T12:38:33.507Z,44.95
2023-01-01T12:39:33.506Z,44.95
2023-01-01T12:40:33.481Z,45.15
2023-01-01T12:41:33.479Z,45.35
2023-01-01T12:42:33.456Z,45.17
2023-01-01T12:43:33.455Z,45.35
2023-01-01T12:44:33.435Z,45.35
2023-01-01T12:45:33.427Z,44.95
2023-01-01T12:46:33.465Z,45.35
2023-01-01T12:47:33.396Z,44.95
2023-01-01T12:48:33.387Z,45.05
2023-01-01T12:49:33.424Z,45.05
2023-01-01T12:50:33.367Z,45.15
2023-01-01T12:51:33.355Z,44.95
2023-01-01T12:52:33.357Z,44.95
2023-01-01T12:53:33.332Z,45.05
2023-01-01T12:54:33.322Z,45.35